Chapin, Iowa
Current Conditions -  °F | °C
As of 5:53 AM on Thursday 29 Jan 2015 (Local Time) from KMCW Reporting Station
Haze Haze  
Wind Chill: 18°   Ceiling: 800
Heat Index: 32°   Visibility: 5mi
Dew Point: 30°   Wind: 26mph
Humidity: 92%   Direction: 320°NW
Pressure: 30.01"   Gusts: 35mph
Location:  42.83°N, 93.22°W
Report Text: KMCW 291153Z AUTO 32023G30KT 5SM BR OVC008 00/M01 A3001 RMK AO2 PK WND 32030/1151 UPB15E34RAB26E27FZRAB34E52 SLP171 P0000 60000 I1002 I6002 T00001011 10006 20000 53035 $
Loading
Personal Weather Stations






























Interactive Weather Map New forecast layout! Learn more

10-Day Weather Forecast

Advertisements
Track Severe Weather on mobile